sensor_id;sensor_type;location;lat;lon;timestamp;P1;durP1;ratioP1;P2;durP2;ratioP2
73474;SDS011;61711;52.266;10.542;2023-03-04T00:01:40;17.05;;;7.15;;
73474;SDS011;61711;52.266;10.542;2023-03-04T00:04:06;23.10;;;7.03;;
73474;SDS011;61711;52.266;10.542;2023-03-04T00:06:32;20.20;;;7.50;;
73474;SDS011;61711;52.266;10.542;2023-03-04T00:08:58;23.42;;;6.88;;
73474;SDS011;61711;52.266;10.542;2023-03-04T00:11:24;18.60;;;7.10;;
73474;SDS011;61711;52.266;10.542;2023-03-04T00:13:50;18.73;;;6.88;;
73474;SDS011;61711;52.266;10.542;2023-03-04T00:16:16;18.67;;;6.88;;
73474;SDS011;61711;52.266;10.542;2023-03-04T00:18:42;17.92;;;6.68;;
73474;SDS011;61711;52.266;10.542;2023-03-04T00:21:08;20.77;;;7.13;;
73474;SDS011;61711;52.266;10.542;2023-03-04T00:23:34;18.05;;;6.47;;
73474;SDS011;61711;52.266;10.542;2023-03-04T00:26:00;18.40;;;6.55;;
73474;SDS011;61711;52.266;10.542;2023-03-04T00:28:26;19.80;;;7.10;;
73474;SDS011;61711;52.266;10.542;2023-03-04T00:30:52;18.95;;;6.80;;
73474;SDS011;61711;52.266;10.542;2023-03-04T00:33:18;18.17;;;5.68;;
73474;SDS011;61711;52.266;10.542;2023-03-04T00:35:44;15.75;;;5.35;;
73474;SDS011;61711;52.266;10.542;2023-03-04T00:38:10;16.33;;;5.93;;
73474;SDS011;61711;52.266;10.542;2023-03-04T00:40:36;19.35;;;5.80;;
73474;SDS011;61711;52.266;10.542;2023-03-04T00:43:02;20.33;;;5.68;;
73474;SDS011;61711;52.266;10.542;2023-03-04T00:45:28;15.00;;;4.88;;
73474;SDS011;61711;52.266;10.542;2023-03-04T00:47:54;16.30;;;5.60;;
73474;SDS011;61711;52.266;10.542;2023-03-04T00:50:20;18.92;;;5.20;;
73474;SDS011;61711;52.266;10.542;2023-03-04T00:52:46;20.92;;;5.00;;
73474;SDS011;61711;52.266;10.542;2023-03-04T00:55:12;23.33;;;5.13;;
73474;SDS011;61711;52.266;10.542;2023-03-04T00:57:38;16.50;;;4.47;;
73474;SDS011;61711;52.266;10.542;2023-03-04T01:00:04;16.52;;;5.30;;
73474;SDS011;61711;52.266;10.542;2023-03-04T01:02:30;14.55;;;4.40;;
73474;SDS011;61711;52.266;10.542;2023-03-04T01:04:56;14.75;;;4.28;;
73474;SDS011;61711;52.266;10.542;2023-03-04T01:07:22;18.75;;;5.38;;
73474;SDS011;61711;52.266;10.542;2023-03-04T01:09:48;20.98;;;4.53;;
73474;SDS011;61711;52.266;10.542;2023-03-04T01:12:14;18.95;;;4.57;;
73474;SDS011;61711;52.266;10.542;2023-03-04T01:14:40;18.55;;;4.50;;
73474;SDS011;61711;52.266;10.542;2023-03-04T01:17:06;17.95;;;5.05;;
73474;SDS011;61711;52.266;10.542;2023-03-04T01:19:32;17.88;;;4.60;;
73474;SDS011;61711;52.266;10.542;2023-03-04T01:21:59;13.77;;;3.88;;
73474;SDS011;61711;52.266;10.542;2023-03-04T01:24:25;12.73;;;4.47;;
73474;SDS011;61711;52.266;10.542;2023-03-04T01:26:51;18.50;;;5.18;;
73474;SDS011;61711;52.266;10.542;2023-03-04T01:29:17;14.93;;;4.05;;
73474;SDS011;61711;52.266;10.542;2023-03-04T01:31:43;24.00;;;4.40;;
73474;SDS011;61711;52.266;10.542;2023-03-04T01:34:09;19.13;;;4.28;;
73474;SDS011;61711;52.266;10.542;2023-03-04T01:36:35;14.02;;;4.20;;
73474;SDS011;61711;52.266;10.542;2023-03-04T01:39:01;19.50;;;4.25;;
73474;SDS011;61711;52.266;10.542;2023-03-04T01:41:28;11.68;;;3.95;;
73474;SDS011;61711;52.266;10.542;2023-03-04T01:43:54;18.92;;;4.13;;
73474;SDS011;61711;52.266;10.542;2023-03-04T01:46:21;14.25;;;4.22;;
73474;SDS011;61711;52.266;10.542;2023-03-04T01:48:47;13.18;;;4.40;;
73474;SDS011;61711;52.266;10.542;2023-03-04T01:51:14;15.07;;;5.07;;
73474;SDS011;61711;52.266;10.542;2023-03-04T01:53:40;14.77;;;4.00;;
73474;SDS011;61711;52.266;10.542;2023-03-04T01:56:23;22.40;;;4.97;;
73474;SDS011;61711;52.266;10.542;2023-03-04T02:01:52;16.05;;;4.90;;
73474;SDS011;61711;52.266;10.542;2023-03-04T02:04:19;10.75;;;3.95;;
73474;SDS011;61711;52.266;10.542;2023-03-04T02:06:46;17.33;;;4.50;;
73474;SDS011;61711;52.266;10.542;2023-03-04T02:09:14;16.50;;;4.15;;
73474;SDS011;61711;52.266;10.542;2023-03-04T02:11:40;17.95;;;4.15;;
73474;SDS011;61711;52.266;10.542;2023-03-04T02:14:07;15.27;;;3.88;;
73474;SDS011;61711;52.266;10.542;2023-03-04T02:16:34;15.70;;;3.67;;
73474;SDS011;61711;52.266;10.542;2023-03-04T02:19:00;16.23;;;4.20;;
73474;SDS011;61711;52.266;10.542;2023-03-04T02:21:30;14.57;;;3.83;;
73474;SDS011;61711;52.266;10.542;2023-03-04T02:26:26;20.27;;;3.88;;
73474;SDS011;61711;52.266;10.542;2023-03-04T02:28:52;12.80;;;3.72;;
73474;SDS011;61711;52.266;10.542;2023-03-04T02:31:35;12.52;;;4.03;;
73474;SDS011;61711;52.266;10.542;2023-03-04T02:34:02;15.25;;;4.00;;
73474;SDS011;61711;52.266;10.542;2023-03-04T02:36:29;14.57;;;3.97;;
73474;SDS011;61711;52.266;10.542;2023-03-04T02:38:58;13.73;;;4.07;;
73474;SDS011;61711;52.266;10.542;2023-03-04T02:41:26;18.10;;;4.00;;
73474;SDS011;61711;52.266;10.542;2023-03-04T02:43:54;13.88;;;3.40;;
73474;SDS011;61711;52.266;10.542;2023-03-04T02:46:20;14.98;;;4.20;;
73474;SDS011;61711;52.266;10.542;2023-03-04T02:48:47;13.38;;;3.97;;
73474;SDS011;61711;52.266;10.542;2023-03-04T02:51:13;15.48;;;3.97;;
73474;SDS011;61711;52.266;10.542;2023-03-04T02:53:39;18.95;;;4.25;;
73474;SDS011;61711;52.266;10.542;2023-03-04T02:56:05;16.23;;;4.38;;
73474;SDS011;61711;52.266;10.542;2023-03-04T02:58:32;14.52;;;3.80;;
73474;SDS011;61711;52.266;10.542;2023-03-04T03:00:58;12.02;;;3.85;;
73474;SDS011;61711;52.266;10.542;2023-03-04T03:03:24;12.23;;;3.70;;
73474;SDS011;61711;52.266;10.542;2023-03-04T03:05:50;14.80;;;3.95;;
73474;SDS011;61711;52.266;10.542;2023-03-04T03:08:16;16.60;;;4.07;;
73474;SDS011;61711;52.266;10.542;2023-03-04T03:10:42;16.35;;;3.60;;
73474;SDS011;61711;52.266;10.542;2023-03-04T03:13:08;13.77;;;4.05;;
73474;SDS011;61711;52.266;10.542;2023-03-04T03:15:34;12.48;;;3.40;;
73474;SDS011;61711;52.266;10.542;2023-03-04T03:18:02;14.63;;;3.63;;
73474;SDS011;61711;52.266;10.542;2023-03-04T03:20:28;11.98;;;4.43;;
73474;SDS011;61711;52.266;10.542;2023-03-04T03:22:54;13.18;;;3.60;;
73474;SDS011;61711;52.266;10.542;2023-03-04T03:25:20;8.70;;;3.30;;
73474;SDS011;61711;52.266;10.542;2023-03-04T03:27:46;17.25;;;3.75;;
73474;SDS011;61711;52.266;10.542;2023-03-04T03:30:13;10.57;;;3.08;;
73474;SDS011;61711;52.266;10.542;2023-03-04T03:32:39;16.08;;;3.67;;
73474;SDS011;61711;52.266;10.542;2023-03-04T03:35:05;13.57;;;3.13;;
73474;SDS011;61711;52.266;10.542;2023-03-04T03:37:31;12.55;;;3.35;;
73474;SDS011;61711;52.266;10.542;2023-03-04T03:39:57;14.05;;;3.10;;
73474;SDS011;61711;52.266;10.542;2023-03-04T03:42:23;11.18;;;4.25;;
73474;SDS011;61711;52.266;10.542;2023-03-04T03:44:49;10.80;;;3.47;;
73474;SDS011;61711;52.266;10.542;2023-03-04T03:47:15;14.57;;;3.13;;
73474;SDS011;61711;52.266;10.542;2023-03-04T03:49:41;9.32;;;3.83;;
73474;SDS011;61711;52.266;10.542;2023-03-04T03:52:07;11.52;;;3.50;;
73474;SDS011;61711;52.266;10.542;2023-03-04T03:54:33;16.83;;;3.15;;
73474;SDS011;61711;52.266;10.542;2023-03-04T03:57:00;11.23;;;2.70;;
73474;SDS011;61711;52.266;10.542;2023-03-04T03:59:26;14.50;;;3.40;;
73474;SDS011;61711;52.266;10.542;2023-03-04T04:01:52;13.70;;;3.10;;
73474;SDS011;61711;52.266;10.542;2023-03-04T04:04:18;16.60;;;2.92;;
73474;SDS011;61711;52.266;10.542;2023-03-04T04:06:44;15.30;;;2.92;;
73474;SDS011;61711;52.266;10.542;2023-03-04T04:09:10;10.52;;;2.67;;
73474;SDS011;61711;52.266;10.542;2023-03-04T04:11:36;10.13;;;2.75;;
73474;SDS011;61711;52.266;10.542;2023-03-04T04:14:02;10.27;;;2.70;;
73474;SDS011;61711;52.266;10.542;2023-03-04T04:16:29;7.68;;;2.70;;
73474;SDS011;61711;52.266;10.542;2023-03-04T04:18:55;12.10;;;3.05;;
73474;SDS011;61711;52.266;10.542;2023-03-04T04:21:21;9.75;;;2.65;;
73474;SDS011;61711;52.266;10.542;2023-03-04T04:23:47;17.67;;;2.83;;
73474;SDS011;61711;52.266;10.542;2023-03-04T04:26:13;12.52;;;2.67;;
73474;SDS011;61711;52.266;10.542;2023-03-04T04:28:39;10.48;;;2.70;;
73474;SDS011;61711;52.266;10.542;2023-03-04T04:31:06;6.72;;;2.15;;
73474;SDS011;61711;52.266;10.542;2023-03-04T04:33:32;11.48;;;2.10;;
73474;SDS011;61711;52.266;10.542;2023-03-04T04:35:59;9.90;;;2.90;;
73474;SDS011;61711;52.266;10.542;2023-03-04T04:38:25;10.25;;;2.78;;
73474;SDS011;61711;52.266;10.542;2023-03-04T04:40:51;7.57;;;2.28;;
73474;SDS011;61711;52.266;10.542;2023-03-04T04:43:17;10.18;;;2.65;;
73474;SDS011;61711;52.266;10.542;2023-03-04T04:45:43;8.32;;;2.17;;
73474;SDS011;61711;52.266;10.542;2023-03-04T04:48:09;10.82;;;2.35;;
73474;SDS011;61711;52.266;10.542;2023-03-04T04:50:35;13.13;;;2.75;;
73474;SDS011;61711;52.266;10.542;2023-03-04T04:53:01;13.68;;;2.80;;
73474;SDS011;61711;52.266;10.542;2023-03-04T04:55:27;10.52;;;2.80;;
73474;SDS011;61711;52.266;10.542;2023-03-04T04:57:53;8.43;;;2.50;;
73474;SDS011;61711;52.266;10.542;2023-03-04T05:00:19;11.68;;;2.70;;
73474;SDS011;61711;52.266;10.542;2023-03-04T05:02:45;9.77;;;2.17;;
73474;SDS011;61711;52.266;10.542;2023-03-04T05:05:11;8.27;;;2.45;;
73474;SDS011;61711;52.266;10.542;2023-03-04T05:07:37;7.65;;;2.30;;
73474;SDS011;61711;52.266;10.542;2023-03-04T05:10:04;6.60;;;2.10;;
73474;SDS011;61711;52.266;10.542;2023-03-04T05:12:30;8.32;;;2.10;;
73474;SDS011;61711;52.266;10.542;2023-03-04T05:14:56;6.10;;;2.30;;
73474;SDS011;61711;52.266;10.542;2023-03-04T05:17:22;10.77;;;2.00;;
73474;SDS011;61711;52.266;10.542;2023-03-04T05:19:47;11.63;;;2.30;;
73474;SDS011;61711;52.266;10.542;2023-03-04T05:22:14;5.55;;;1.95;;
73474;SDS011;61711;52.266;10.542;2023-03-04T05:24:39;7.22;;;2.05;;
73474;SDS011;61711;52.266;10.542;2023-03-04T05:27:05;11.27;;;2.13;;
73474;SDS011;61711;52.266;10.542;2023-03-04T05:29:31;9.52;;;2.13;;
73474;SDS011;61711;52.266;10.542;2023-03-04T05:31:57;10.82;;;2.40;;
73474;SDS011;61711;52.266;10.542;2023-03-04T05:34:23;7.63;;;2.20;;
73474;SDS011;61711;52.266;10.542;2023-03-04T05:36:49;8.07;;;2.13;;
73474;SDS011;61711;52.266;10.542;2023-03-04T05:39:15;8.35;;;2.10;;
73474;SDS011;61711;52.266;10.542;2023-03-04T05:41:41;11.98;;;2.92;;
73474;SDS011;61711;52.266;10.542;2023-03-04T05:44:07;9.18;;;2.00;;
73474;SDS011;61711;52.266;10.542;2023-03-04T05:46:33;3.45;;;1.83;;
73474;SDS011;61711;52.266;10.542;2023-03-04T05:48:59;8.55;;;2.42;;
73474;SDS011;61711;52.266;10.542;2023-03-04T05:51:25;11.02;;;2.40;;
73474;SDS011;61711;52.266;10.542;2023-03-04T05:53:51;6.88;;;2.65;;
73474;SDS011;61711;52.266;10.542;2023-03-04T05:56:18;7.60;;;2.33;;
73474;SDS011;61711;52.266;10.542;2023-03-04T05:58:44;10.73;;;2.15;;
73474;SDS011;61711;52.266;10.542;2023-03-04T06:01:13;9.80;;;2.50;;
73474;SDS011;61711;52.266;10.542;2023-03-04T06:03:40;8.00;;;2.22;;
73474;SDS011;61711;52.266;10.542;2023-03-04T06:06:07;9.05;;;2.40;;
73474;SDS011;61711;52.266;10.542;2023-03-04T06:08:33;9.15;;;2.20;;
73474;SDS011;61711;52.266;10.542;2023-03-04T06:10:59;8.80;;;2.42;;
73474;SDS011;61711;52.266;10.542;2023-03-04T06:13:26;11.18;;;2.30;;
73474;SDS011;61711;52.266;10.542;2023-03-04T06:15:53;8.55;;;2.55;;
73474;SDS011;61711;52.266;10.542;2023-03-04T06:18:19;9.13;;;2.90;;
73474;SDS011;61711;52.266;10.542;2023-03-04T06:20:45;7.93;;;3.00;;
73474;SDS011;61711;52.266;10.542;2023-03-04T06:23:11;13.10;;;3.10;;
73474;SDS011;61711;52.266;10.542;2023-03-04T06:25:37;9.30;;;2.95;;
73474;SDS011;61711;52.266;10.542;2023-03-04T06:28:03;10.00;;;2.53;;
73474;SDS011;61711;52.266;10.542;2023-03-04T06:30:29;9.70;;;2.40;;
73474;SDS011;61711;52.266;10.542;2023-03-04T06:32:55;4.03;;;2.00;;
73474;SDS011;61711;52.266;10.542;2023-03-04T06:35:21;8.25;;;2.30;;
73474;SDS011;61711;52.266;10.542;2023-03-04T06:37:47;7.05;;;2.53;;
73474;SDS011;61711;52.266;10.542;2023-03-04T06:40:13;9.35;;;2.30;;
73474;SDS011;61711;52.266;10.542;2023-03-04T06:42:39;10.32;;;2.67;;
73474;SDS011;61711;52.266;10.542;2023-03-04T06:45:06;9.35;;;2.67;;
73474;SDS011;61711;52.266;10.542;2023-03-04T06:47:32;7.25;;;2.72;;
73474;SDS011;61711;52.266;10.542;2023-03-04T06:49:58;9.63;;;3.10;;
73474;SDS011;61711;52.266;10.542;2023-03-04T06:52:24;11.90;;;2.80;;
73474;SDS011;61711;52.266;10.542;2023-03-04T06:54:50;13.07;;;3.10;;
73474;SDS011;61711;52.266;10.542;2023-03-04T06:57:16;8.00;;;2.72;;
73474;SDS011;61711;52.266;10.542;2023-03-04T06:59:42;6.88;;;2.85;;
73474;SDS011;61711;52.266;10.542;2023-03-04T07:02:11;7.35;;;2.10;;
73474;SDS011;61711;52.266;10.542;2023-03-04T07:04:37;13.32;;;2.85;;
73474;SDS011;61711;52.266;10.542;2023-03-04T07:07:03;12.30;;;2.78;;
73474;SDS011;61711;52.266;10.542;2023-03-04T07:09:29;8.63;;;2.30;;
73474;SDS011;61711;52.266;10.542;2023-03-04T07:11:55;6.82;;;2.85;;
73474;SDS011;61711;52.266;10.542;2023-03-04T07:14:21;9.18;;;2.35;;
73474;SDS011;61711;52.266;10.542;2023-03-04T07:16:47;8.20;;;2.90;;
73474;SDS011;61711;52.266;10.542;2023-03-04T07:19:13;12.30;;;2.63;;
73474;SDS011;61711;52.266;10.542;2023-03-04T07:21:39;8.65;;;2.60;;
73474;SDS011;61711;52.266;10.542;2023-03-04T07:24:05;10.55;;;2.78;;
73474;SDS011;61711;52.266;10.542;2023-03-04T07:26:31;6.57;;;2.45;;
73474;SDS011;61711;52.266;10.542;2023-03-04T07:28:57;12.13;;;2.50;;
73474;SDS011;61711;52.266;10.542;2023-03-04T07:31:25;8.48;;;2.85;;
73474;SDS011;61711;52.266;10.542;2023-03-04T07:33:54;9.73;;;2.47;;
73474;SDS011;61711;52.266;10.542;2023-03-04T07:36:20;8.40;;;2.30;;
73474;SDS011;61711;52.266;10.542;2023-03-04T07:38:47;7.72;;;2.60;;
73474;SDS011;61711;52.266;10.542;2023-03-04T07:41:14;8.10;;;2.55;;
73474;SDS011;61711;52.266;10.542;2023-03-04T07:43:40;6.97;;;2.63;;
73474;SDS011;61711;52.266;10.542;2023-03-04T07:46:06;9.60;;;2.92;;
73474;SDS011;61711;52.266;10.542;2023-03-04T07:48:32;7.07;;;2.42;;
73474;SDS011;61711;52.266;10.542;2023-03-04T07:51:09;8.30;;;2.88;;
73474;SDS011;61711;52.266;10.542;2023-03-04T07:53:36;10.45;;;2.80;;
73474;SDS011;61711;52.266;10.542;2023-03-04T07:56:02;12.38;;;3.22;;
73474;SDS011;61711;52.266;10.542;2023-03-04T07:58:28;12.20;;;2.95;;
73474;SDS011;61711;52.266;10.542;2023-03-04T08:00:55;8.32;;;2.72;;
73474;SDS011;61711;52.266;10.542;2023-03-04T08:03:21;6.97;;;2.33;;
73474;SDS011;61711;52.266;10.542;2023-03-04T08:05:47;6.30;;;2.55;;
73474;SDS011;61711;52.266;10.542;2023-03-04T08:08:13;11.30;;;2.60;;
73474;SDS011;61711;52.266;10.542;2023-03-04T08:10:39;11.90;;;2.78;;
73474;SDS011;61711;52.266;10.542;2023-03-04T08:13:06;8.57;;;2.75;;
73474;SDS011;61711;52.266;10.542;2023-03-04T08:15:32;12.15;;;2.88;;
73474;SDS011;61711;52.266;10.542;2023-03-04T08:17:59;7.88;;;3.17;;
73474;SDS011;61711;52.266;10.542;2023-03-04T08:20:25;10.25;;;2.95;;
73474;SDS011;61711;52.266;10.542;2023-03-04T08:22:52;9.38;;;3.13;;
73474;SDS011;61711;52.266;10.542;2023-03-04T08:25:18;11.45;;;3.00;;
73474;SDS011;61711;52.266;10.542;2023-03-04T08:27:44;9.57;;;2.88;;
73474;SDS011;61711;52.266;10.542;2023-03-04T08:30:10;9.50;;;3.88;;
73474;SDS011;61711;52.266;10.542;2023-03-04T08:32:36;11.00;;;3.50;;
73474;SDS011;61711;52.266;10.542;2023-03-04T08:35:02;6.57;;;2.90;;
73474;SDS011;61711;52.266;10.542;2023-03-04T08:37:28;9.18;;;3.17;;
73474;SDS011;61711;52.266;10.542;2023-03-04T08:39:54;13.32;;;3.90;;
73474;SDS011;61711;52.266;10.542;2023-03-04T08:42:20;8.85;;;3.13;;
73474;SDS011;61711;52.266;10.542;2023-03-04T08:44:48;12.45;;;3.67;;
73474;SDS011;61711;52.266;10.542;2023-03-04T08:47:14;11.32;;;3.88;;
73474;SDS011;61711;52.266;10.542;2023-03-04T08:49:40;9.63;;;3.13;;
73474;SDS011;61711;52.266;10.542;2023-03-04T08:52:06;8.73;;;2.97;;
73474;SDS011;61711;52.266;10.542;2023-03-04T08:54:32;9.43;;;3.00;;
73474;SDS011;61711;52.266;10.542;2023-03-04T08:56:58;7.22;;;3.10;;
73474;SDS011;61711;52.266;10.542;2023-03-04T08:59:24;6.03;;;2.28;;
73474;SDS011;61711;52.266;10.542;2023-03-04T09:01:50;8.82;;;2.50;;
73474;SDS011;61711;52.266;10.542;2023-03-04T09:04:16;5.95;;;1.90;;
73474;SDS011;61711;52.266;10.542;2023-03-04T09:06:42;6.38;;;1.88;;
73474;SDS011;61711;52.266;10.542;2023-03-04T09:09:08;5.93;;;1.90;;
73474;SDS011;61711;52.266;10.542;2023-03-04T09:11:34;4.57;;;1.58;;
73474;SDS011;61711;52.266;10.542;2023-03-04T09:14:00;6.05;;;1.70;;
73474;SDS011;61711;52.266;10.542;2023-03-04T09:16:26;10.73;;;2.17;;
73474;SDS011;61711;52.266;10.542;2023-03-04T09:18:52;5.10;;;2.03;;
73474;SDS011;61711;52.266;10.542;2023-03-04T09:21:18;6.78;;;1.92;;
73474;SDS011;61711;52.266;10.542;2023-03-04T09:23:44;11.20;;;1.95;;
73474;SDS011;61711;52.266;10.542;2023-03-04T09:26:20;5.10;;;2.05;;
73474;SDS011;61711;52.266;10.542;2023-03-04T09:28:50;9.40;;;2.00;;
73474;SDS011;61711;52.266;10.542;2023-03-04T09:31:16;7.50;;;2.03;;
73474;SDS011;61711;52.266;10.542;2023-03-04T09:33:42;10.05;;;2.30;;
73474;SDS011;61711;52.266;10.542;2023-03-04T09:36:09;8.25;;;2.10;;
73474;SDS011;61711;52.266;10.542;2023-03-04T09:38:36;9.20;;;2.17;;
73474;SDS011;61711;52.266;10.542;2023-03-04T09:41:06;11.82;;;2.17;;
73474;SDS011;61711;52.266;10.542;2023-03-04T09:43:32;4.90;;;1.63;;
73474;SDS011;61711;52.266;10.542;2023-03-04T09:46:00;7.75;;;1.90;;
73474;SDS011;61711;52.266;10.542;2023-03-04T09:48:28;10.43;;;1.80;;
73474;SDS011;61711;52.266;10.542;2023-03-04T09:51:00;3.75;;;1.67;;
73474;SDS011;61711;52.266;10.542;2023-03-04T09:53:39;2.95;;;1.55;;
73474;SDS011;61711;52.266;10.542;2023-03-04T09:56:10;3.28;;;1.60;;
73474;SDS011;61711;52.266;10.542;2023-03-04T10:03:50;5.20;;;2.00;;
73474;SDS011;61711;52.266;10.542;2023-03-04T10:06:16;7.15;;;2.00;;
73474;SDS011;61711;52.266;10.542;2023-03-04T10:08:44;6.40;;;2.25;;
73474;SDS011;61711;52.266;10.542;2023-03-04T10:16:26;6.38;;;2.33;;
73474;SDS011;61711;52.266;10.542;2023-03-04T10:18:55;3.95;;;1.95;;
73474;SDS011;61711;52.266;10.542;2023-03-04T10:23:49;6.65;;;2.20;;
73474;SDS011;61711;52.266;10.542;2023-03-04T10:26:17;5.18;;;2.20;;
73474;SDS011;61711;52.266;10.542;2023-03-04T10:28:45;4.80;;;2.08;;
73474;SDS011;61711;52.266;10.542;2023-03-04T10:31:16;6.85;;;2.33;;
73474;SDS011;61711;52.266;10.542;2023-03-04T10:33:46;6.05;;;2.17;;
73474;SDS011;61711;52.266;10.542;2023-03-04T10:38:45;10.13;;;2.17;;
73474;SDS011;61711;52.266;10.542;2023-03-04T10:41:21;7.45;;;2.20;;
73474;SDS011;61711;52.266;10.542;2023-03-04T10:43:49;8.50;;;2.42;;
73474;SDS011;61711;52.266;10.542;2023-03-04T10:46:16;6.53;;;2.33;;
73474;SDS011;61711;52.266;10.542;2023-03-04T10:48:42;7.65;;;2.30;;
73474;SDS011;61711;52.266;10.542;2023-03-04T10:51:30;9.60;;;2.58;;
73474;SDS011;61711;52.266;10.542;2023-03-04T10:53:59;6.97;;;2.20;;
73474;SDS011;61711;52.266;10.542;2023-03-04T10:56:37;10.80;;;2.47;;
73474;SDS011;61711;52.266;10.542;2023-03-04T11:01:52;7.70;;;2.33;;
73474;SDS011;61711;52.266;10.542;2023-03-04T11:04:19;6.97;;;2.38;;
73474;SDS011;61711;52.266;10.542;2023-03-04T11:06:47;8.93;;;2.40;;
73474;SDS011;61711;52.266;10.542;2023-03-04T11:09:20;9.25;;;2.00;;
73474;SDS011;61711;52.266;10.542;2023-03-04T11:11:46;11.27;;;2.20;;
73474;SDS011;61711;52.266;10.542;2023-03-04T11:14:18;12.82;;;2.47;;
73474;SDS011;61711;52.266;10.542;2023-03-04T11:19:38;9.30;;;1.60;;
73474;SDS011;61711;52.266;10.542;2023-03-04T11:22:05;6.88;;;1.90;;
73474;SDS011;61711;52.266;10.542;2023-03-04T11:24:32;9.63;;;2.08;;
73474;SDS011;61711;52.266;10.542;2023-03-04T11:27:03;8.40;;;1.75;;
73474;SDS011;61711;52.266;10.542;2023-03-04T11:32:04;8.50;;;1.90;;
73474;SDS011;61711;52.266;10.542;2023-03-04T11:40:00;9.18;;;1.67;;
73474;SDS011;61711;52.266;10.542;2023-03-04T11:42:40;7.32;;;1.80;;
73474;SDS011;61711;52.266;10.542;2023-03-04T11:45:54;7.65;;;1.83;;
73474;SDS011;61711;52.266;10.542;2023-03-04T11:47:58;8.75;;;1.63;;
73474;SDS011;61711;52.266;10.542;2023-03-04T11:53:07;7.50;;;1.75;;
73474;SDS011;61711;52.266;10.542;2023-03-04T11:58:09;2.63;;;0.98;;
73474;SDS011;61711;52.266;10.542;2023-03-04T12:11:01;5.15;;;2.00;;
73474;SDS011;61711;52.266;10.542;2023-03-04T12:21:23;4.95;;;1.30;;
73474;SDS011;61711;52.266;10.542;2023-03-04T12:32:02;16.83;;;5.22;;
73474;SDS011;61711;52.266;10.542;2023-03-04T12:34:37;5.30;;;1.30;;
73474;SDS011;61711;52.266;10.542;2023-03-04T12:39:32;2.75;;;0.85;;
73474;SDS011;61711;52.266;10.542;2023-03-04T12:42:04;3.83;;;0.95;;
73474;SDS011;61711;52.266;10.542;2023-03-04T12:44:41;4.17;;;0.90;;
73474;SDS011;61711;52.266;10.542;2023-03-04T12:55:23;5.28;;;1.10;;
73474;SDS011;61711;52.266;10.542;2023-03-04T12:57:51;1.90;;;0.80;;
73474;SDS011;61711;52.266;10.542;2023-03-04T13:07:55;5.75;;;1.10;;
73474;SDS011;61711;52.266;10.542;2023-03-04T13:10:24;3.53;;;1.05;;
73474;SDS011;61711;52.266;10.542;2023-03-04T13:12:51;9.60;;;3.40;;
73474;SDS011;61711;52.266;10.542;2023-03-04T13:22:57;5.38;;;1.40;;
73474;SDS011;61711;52.266;10.542;2023-03-04T13:32:52;4.05;;;1.20;;
73474;SDS011;61711;52.266;10.542;2023-03-04T13:38:18;5.38;;;1.33;;
73474;SDS011;61711;52.266;10.542;2023-03-04T13:43:39;4.90;;;1.48;;
73474;SDS011;61711;52.266;10.542;2023-03-04T13:51:30;4.82;;;1.00;;
73474;SDS011;61711;52.266;10.542;2023-03-04T13:56:42;4.95;;;1.48;;
73474;SDS011;61711;52.266;10.542;2023-03-04T13:59:25;7.22;;;1.92;;
73474;SDS011;61711;52.266;10.542;2023-03-04T14:01:59;5.60;;;2.22;;
73474;SDS011;61711;52.266;10.542;2023-03-04T14:06:52;6.80;;;2.50;;
73474;SDS011;61711;52.266;10.542;2023-03-04T14:09:20;7.00;;;1.33;;
73474;SDS011;61711;52.266;10.542;2023-03-04T14:11:46;9.90;;;2.42;;
73474;SDS011;61711;52.266;10.542;2023-03-04T14:14:14;7.47;;;1.60;;
73474;SDS011;61711;52.266;10.542;2023-03-04T14:16:45;4.35;;;1.40;;
73474;SDS011;61711;52.266;10.542;2023-03-04T14:19:15;6.03;;;1.90;;
73474;SDS011;61711;52.266;10.542;2023-03-04T14:21:45;7.28;;;1.38;;
73474;SDS011;61711;52.266;10.542;2023-03-04T14:24:15;5.13;;;1.50;;
73474;SDS011;61711;52.266;10.542;2023-03-04T14:26:42;5.50;;;1.70;;
73474;SDS011;61711;52.266;10.542;2023-03-04T14:29:24;7.18;;;1.38;;
73474;SDS011;61711;52.266;10.542;2023-03-04T14:31:51;3.20;;;1.30;;
73474;SDS011;61711;52.266;10.542;2023-03-04T14:34:30;7.15;;;1.42;;
73474;SDS011;61711;52.266;10.542;2023-03-04T14:36:58;9.38;;;1.55;;
73474;SDS011;61711;52.266;10.542;2023-03-04T14:39:25;5.55;;;1.30;;
73474;SDS011;61711;52.266;10.542;2023-03-04T14:41:52;5.45;;;1.40;;
73474;SDS011;61711;52.266;10.542;2023-03-04T14:46:49;4.15;;;0.90;;
73474;SDS011;61711;52.266;10.542;2023-03-04T14:49:15;4.43;;;1.20;;
73474;SDS011;61711;52.266;10.542;2023-03-04T14:54:23;10.63;;;1.67;;
73474;SDS011;61711;52.266;10.542;2023-03-04T14:56:50;5.88;;;1.60;;
73474;SDS011;61711;52.266;10.542;2023-03-04T14:59:16;8.85;;;1.45;;
73474;SDS011;61711;52.266;10.542;2023-03-04T15:01:42;6.32;;;1.40;;
73474;SDS011;61711;52.266;10.542;2023-03-04T15:04:10;11.00;;;1.90;;
73474;SDS011;61711;52.266;10.542;2023-03-04T15:06:46;6.00;;;1.55;;
73474;SDS011;61711;52.266;10.542;2023-03-04T15:09:20;6.07;;;1.40;;
73474;SDS011;61711;52.266;10.542;2023-03-04T15:11:47;7.47;;;1.73;;
73474;SDS011;61711;52.266;10.542;2023-03-04T15:16:58;4.93;;;1.42;;
73474;SDS011;61711;52.266;10.542;2023-03-04T15:19:26;6.30;;;1.42;;
73474;SDS011;61711;52.266;10.542;2023-03-04T15:22:01;10.98;;;1.80;;
73474;SDS011;61711;52.266;10.542;2023-03-04T15:24:28;9.98;;;1.95;;
73474;SDS011;61711;52.266;10.542;2023-03-04T15:26:53;6.63;;;1.80;;
73474;SDS011;61711;52.266;10.542;2023-03-04T15:29:20;8.10;;;2.03;;
73474;SDS011;61711;52.266;10.542;2023-03-04T15:31:47;7.78;;;2.33;;
73474;SDS011;61711;52.266;10.542;2023-03-04T15:34:13;6.55;;;1.77;;
73474;SDS011;61711;52.266;10.542;2023-03-04T15:36:40;8.15;;;1.83;;
73474;SDS011;61711;52.266;10.542;2023-03-04T15:39:08;7.40;;;1.60;;
73474;SDS011;61711;52.266;10.542;2023-03-04T15:41:35;8.38;;;1.63;;
73474;SDS011;61711;52.266;10.542;2023-03-04T15:44:01;12.57;;;2.28;;
73474;SDS011;61711;52.266;10.542;2023-03-04T15:46:27;7.20;;;1.50;;
73474;SDS011;61711;52.266;10.542;2023-03-04T15:48:53;12.13;;;2.40;;
73474;SDS011;61711;52.266;10.542;2023-03-04T15:51:20;8.60;;;2.30;;
73474;SDS011;61711;52.266;10.542;2023-03-04T15:53:50;13.82;;;2.50;;
73474;SDS011;61711;52.266;10.542;2023-03-04T15:56:17;9.13;;;2.28;;
73474;SDS011;61711;52.266;10.542;2023-03-04T15:58:44;10.25;;;2.22;;
73474;SDS011;61711;52.266;10.542;2023-03-04T16:01:13;9.45;;;2.45;;
73474;SDS011;61711;52.266;10.542;2023-03-04T16:03:40;12.38;;;2.30;;
73474;SDS011;61711;52.266;10.542;2023-03-04T16:06:08;10.10;;;2.45;;
73474;SDS011;61711;52.266;10.542;2023-03-04T16:08:34;10.07;;;2.20;;
73474;SDS011;61711;52.266;10.542;2023-03-04T16:11:00;11.63;;;2.47;;
73474;SDS011;61711;52.266;10.542;2023-03-04T16:13:26;9.80;;;2.30;;
73474;SDS011;61711;52.266;10.542;2023-03-04T16:15:52;11.23;;;2.30;;
73474;SDS011;61711;52.266;10.542;2023-03-04T16:18:18;11.18;;;2.20;;
73474;SDS011;61711;52.266;10.542;2023-03-04T16:20:45;10.30;;;1.92;;
73474;SDS011;61711;52.266;10.542;2023-03-04T16:23:13;12.50;;;1.73;;
73474;SDS011;61711;52.266;10.542;2023-03-04T16:25:43;10.13;;;2.10;;
73474;SDS011;61711;52.266;10.542;2023-03-04T16:28:10;12.38;;;2.75;;
73474;SDS011;61711;52.266;10.542;2023-03-04T16:30:36;10.23;;;2.13;;
73474;SDS011;61711;52.266;10.542;2023-03-04T16:33:02;8.30;;;2.15;;